Pecos, TX

11:30 PM CDT on May 25, 2017 (GMT -0500)
Pecos Municipal

Weather History for KPEQ - December, 2012

Change the Weather History Date:

Sunday, December 16, 2012

  Actual Average Record
Temperature  
Mean Temperature 50 °F -  
Max Temperature 64 °F 60 °F 82 °F (2006)
Min Temperature 37 °F 26 °F 10 °F (1972)
Degree Days  
Heating Degree Days 14    
Moisture  
Dew Point 30 °F    
Average Humidity 45    
Maximum Humidity 67    
Minimum Humidity 25    
Precipitation  
Precipitation 0.00 in - - ()
Sea Level Pressure  
Sea Level Pressure 29.93 in    
Wind  
Wind Speed 12 mph (WSW)    
Max Wind Speed 28 mph    
Max Gust Speed 33 mph    
Visibility 10 miles    
Events      
Averages and records for this station are not official NWS values.
T = Trace of Precipitation, MM = Missing Value Source: NWS Daily Summary

Daily Weather History Graph

Daily Weather History Graph

Search for Another Location

Airport or City:

Trip Planner

Search our weather history database for the weather conditions in past years. The results will help you decide how hot, cold, wet, or windy it might be!

Date:

Astronomy

Dec. 16, 2012 Rise Set
Actual Time 7:46 AM CST 5:53 PM CST
Civil Twilight 7:19 AM CST 6:20 PM CST
Nautical Twilight 6:49 AM CST 6:50 PM CST
Astronomical Twilight 6:19 AM CST 7:20 PM CST
Moon 10:32 AM CST (12/16) 9:57 PM CST (12/16)
Length of Visible Light 11h 00m
Length of Day
10h 06m
Waxing Crescent, 16% of the Moon is Illuminated
Dec 16
Waxing Crescent
Dec 19
First Quarter
Dec 28
Full
Jan 4
Last Quarter
Jan 11
New

Hourly Weather History & Observations

Time (CST) Temp. Windchill Dew Point Humidity Pressure Visibility Wind Dir Wind Speed Gust Speed Precip Events Conditions
12:15 AM 47.5 °F - 29.3 °F 49% 29.91 in 10.0 mi SSW 5.8 mph - N/A   Clear
12:55 AM 45.7 °F 42.0 °F 29.7 °F 54% 29.91 in 10.0 mi SW 6.9 mph - N/A   Clear
1:15 AM 45.7 °F 41.5 °F 29.7 °F 54% 29.91 in 10.0 mi WSW 8.1 mph - N/A   Clear
1:55 AM 46.0 °F 42.5 °F 29.8 °F 53% 29.91 in 10.0 mi SW 6.9 mph - N/A   Clear
2:15 AM 45.3 °F 41.6 °F 29.3 °F 54% 29.92 in 10.0 mi West 6.9 mph - N/A   Clear
2:55 AM 41.5 °F 36.4 °F 28.2 °F 59% 29.92 in 10.0 mi West 8.1 mph - N/A   Clear
3:15 AM 41.9 °F 36.9 °F 28.8 °F 60% 29.92 in 10.0 mi West 8.1 mph - N/A   Clear
3:35 AM 40.8 °F 36.9 °F 27.7 °F 60% 29.93 in 10.0 mi West 5.8 mph - N/A   Clear
3:55 AM 38.8 °F 34.6 °F 27.5 °F 64% 29.93 in 10.0 mi West 5.8 mph - N/A   Clear
4:15 AM 38.5 °F 32.7 °F 27.3 °F 64% 29.94 in 10.0 mi WSW 8.1 mph - N/A   Clear
4:35 AM 38.8 °F 33.8 °F 27.5 °F 64% 29.93 in 10.0 mi SSW 6.9 mph - N/A   Clear
4:55 AM 37.8 °F 32.5 °F 27.1 °F 66% 29.93 in 10.0 mi SW 6.9 mph - N/A   Clear
5:15 AM 39.6 °F 35.4 °F 28.4 °F 64% 29.94 in 10.0 mi SW 5.8 mph - N/A   Clear
5:35 AM 37.4 °F 33.8 °F 27.3 °F 67% 29.93 in 10.0 mi SW 4.6 mph - N/A   Clear
5:55 AM 40.6 °F 34.3 °F 29.7 °F 65% 29.93 in 10.0 mi WSW 10.4 mph - N/A   Clear
6:15 AM 41.7 °F 36.1 °F 29.3 °F 61% 29.93 in 10.0 mi West 9.2 mph - N/A   Clear
6:35 AM 40.5 °F 33.2 °F 29.3 °F 64% 29.93 in 10.0 mi WSW 12.7 mph - N/A   Clear
7:15 AM 39.6 °F 34.0 °F 28.4 °F 64% 29.95 in 10.0 mi West 8.1 mph - N/A   Clear
7:35 AM 40.3 °F 33.9 °F 29.5 °F 65% 29.95 in 10.0 mi WSW 10.4 mph - N/A   Clear
7:55 AM 43.5 °F 37.9 °F 30.2 °F 59% 29.96 in 10.0 mi WSW 10.4 mph - N/A   Clear
8:15 AM 41.0 °F 35.8 °F 29.3 °F 63% 29.96 in 10.0 mi SW 8.1 mph - N/A   Clear
8:35 AM 43.9 °F 40.5 °F 30.6 °F 59% 29.97 in 10.0 mi SW 5.8 mph - N/A   Clear
8:55 AM 47.3 °F - 31.5 °F 54% 29.97 in 10.0 mi SW 6.9 mph - N/A   Clear
9:15 AM 50.4 °F - 31.8 °F 49% 29.97 in 10.0 mi SW 8.1 mph - N/A   Clear
9:35 AM 52.9 °F - 32.0 °F 45% 29.97 in 10.0 mi SW 11.5 mph - N/A   Clear
9:55 AM 54.9 °F - 31.8 °F 42% 29.97 in 10.0 mi SW 12.7 mph - N/A   Clear
10:15 AM 56.8 °F - 31.8 °F 39% 29.97 in 10.0 mi SW 16.1 mph - N/A   Clear
10:35 AM 57.9 °F - 31.8 °F 37% 29.97 in 10.0 mi WSW 23.0 mph 27.6 mph N/A   Clear
10:55 AM 58.6 °F - 32.0 °F 37% 29.97 in 10.0 mi WSW 16.1 mph 24.2 mph N/A   Clear
11:15 AM 60.1 °F - 31.6 °F 34% 29.97 in 10.0 mi West 12.7 mph 24.2 mph N/A   Clear
11:35 AM 61.2 °F - 30.6 °F 32% 29.95 in 10.0 mi West 21.9 mph 28.8 mph N/A   Clear
11:55 AM 61.7 °F - 30.2 °F 30% 29.95 in 10.0 mi WSW 20.7 mph 27.6 mph N/A   Clear
12:35 PM 63.0 °F - 29.3 °F 28% 29.92 in 10.0 mi West 23.0 mph 29.9 mph N/A   Clear
12:55 PM 63.7 °F - 29.3 °F 27% 29.91 in 10.0 mi WSW 21.9 mph 28.8 mph N/A   Clear
1:15 PM 63.7 °F - 29.5 °F 28% 29.89 in 10.0 mi West 18.4 mph 28.8 mph N/A   Clear
1:35 PM 63.9 °F - 28.2 °F 26% 29.88 in 10.0 mi WSW 26.5 mph - N/A   Clear
1:55 PM 64.6 °F - 28.6 °F 26% 29.88 in 10.0 mi WSW 23.0 mph 33.4 mph N/A   Clear
2:15 PM 64.6 °F - 27.3 °F 25% 29.86 in 10.0 mi West 21.9 mph 32.2 mph N/A   Clear
2:35 PM 64.6 °F - 27.9 °F 25% 29.85 in 10.0 mi WSW 24.2 mph 32.2 mph N/A   Clear
2:55 PM 64.6 °F - 28.4 °F 26% 29.85 in 10.0 mi WSW 19.6 mph 31.1 mph N/A   Clear
3:35 PM 64.4 °F - 28.4 °F 26% 29.85 in 10.0 mi West 27.6 mph 33.4 mph N/A   Clear
3:55 PM 63.5 °F - 28.9 °F 27% 29.85 in 10.0 mi WSW 24.2 mph 28.8 mph N/A   Scattered Clouds
4:15 PM 64.4 °F - 29.1 °F 27% 29.85 in 10.0 mi West 27.6 mph 33.4 mph N/A   Scattered Clouds
4:35 PM 62.6 °F - 28.8 °F 28% 29.86 in 7.0 mi West 24.2 mph 33.4 mph N/A   Clear
5:15 PM 60.8 °F - 29.1 °F 30% 29.88 in 10.0 mi West 27.6 mph 33.4 mph N/A   Clear
5:35 PM 59.5 °F - 29.7 °F 32% 29.89 in 10.0 mi West 23.0 mph 27.6 mph N/A   Clear
5:55 PM 58.6 °F - 29.3 °F 33% 29.89 in 10.0 mi West 18.4 mph 26.5 mph N/A   Clear
6:15 PM 57.9 °F - 29.7 °F 34% 29.90 in 10.0 mi West 17.3 mph - N/A   Scattered Clouds
6:35 PM 56.5 °F - 29.3 °F 35% 29.91 in 10.0 mi West 12.7 mph - N/A   Clear
6:55 PM 55.6 °F - 30.2 °F 38% 29.92 in 10.0 mi West 12.7 mph - N/A   Clear
7:15 PM 55.8 °F - 30.6 °F 38% 29.93 in 10.0 mi West 18.4 mph - N/A   Clear
7:35 PM 55.6 °F - 30.9 °F 39% 29.93 in 10.0 mi West 16.1 mph 25.3 mph N/A   Clear
8:15 PM 54.7 °F - 31.6 °F 42% 29.96 in 10.0 mi West 18.4 mph - N/A   Clear
8:35 PM 54.5 °F - 32.0 °F 42% 29.97 in 10.0 mi West 15.0 mph 25.3 mph N/A   Clear
8:55 PM 54.0 °F - 32.0 °F 43% 29.98 in 10.0 mi West 19.6 mph 24.2 mph N/A   Clear
9:15 PM 53.6 °F - 32.0 °F 44% 29.98 in 10.0 mi West 17.3 mph 23.0 mph N/A   Clear
9:35 PM 52.9 °F - 32.2 °F 45% 29.98 in 10.0 mi WSW 19.6 mph 24.2 mph N/A   Clear
9:55 PM 52.0 °F - 32.4 °F 47% 29.99 in 10.0 mi West 18.4 mph - N/A   Clear
10:15 PM 52.0 °F - 32.0 °F 47% 30.00 in 10.0 mi West 20.7 mph 25.3 mph N/A   Clear
10:35 PM 52.0 °F - 30.9 °F 45% 30.01 in 10.0 mi West 24.2 mph 28.8 mph N/A   Clear
10:55 PM 51.1 °F - 30.2 °F 45% 30.02 in 10.0 mi West 17.3 mph - N/A   Clear
11:15 PM 50.9 °F - 29.3 °F 43% 30.02 in 10.0 mi WSW 15.0 mph - N/A   Clear
11:35 PM 48.7 °F - 29.7 °F 48% 30.02 in 10.0 mi WSW 11.5 mph - N/A   Clear
11:55 PM 47.7 °F - 30.0 °F 50% 30.02 in 10.0 mi West 17.3 mph - N/A   Clear